createdAt,value
2018-03-21T00:02:23.173Z,7.25
2018-03-21T00:04:50.658Z,7.68
2018-03-21T00:07:18.212Z,6.90
2018-03-21T00:09:45.696Z,8.77
2018-03-21T00:12:13.170Z,7.60
2018-03-21T00:14:41.398Z,9.00
2018-03-21T00:17:08.882Z,9.27
2018-03-21T00:19:36.337Z,5.85
2018-03-21T00:22:03.804Z,12.77
2018-03-21T00:30:18.106Z,13.55
2018-03-21T00:32:46.442Z,11.77
2018-03-21T00:35:14.026Z,9.80
2018-03-21T00:40:32.097Z,10.13
2018-03-21T00:43:00.472Z,10.95
2018-03-21T00:45:28.821Z,12.70
2018-03-21T00:47:56.412Z,10.32
2018-03-21T00:50:24.752Z,6.50
2018-03-21T00:52:52.353Z,14.95
2018-03-21T00:55:20.718Z,11.27
2018-03-21T00:57:48.314Z,7.97
2018-03-21T01:00:16.658Z,9.93
2018-03-21T01:02:44.255Z,10.77
2018-03-21T01:05:11.827Z,6.20
2018-03-21T01:07:39.421Z,10.27
2018-03-21T01:10:07.209Z,6.15
2018-03-21T01:12:34.799Z,8.48
2018-03-21T01:15:03.167Z,5.95
2018-03-21T01:17:31.512Z,9.48
2018-03-21T01:19:59.079Z,7.95
2018-03-21T01:22:26.683Z,10.35
2018-03-21T01:24:55.025Z,7.87
2018-03-21T01:27:22.598Z,8.48
2018-03-21T01:29:50.177Z,8.13
2018-03-21T01:32:18.541Z,6.65
2018-03-21T01:34:46.879Z,5.12
2018-03-21T01:37:14.443Z,8.85
2018-03-21T01:39:42.041Z,7.25
2018-03-21T01:42:09.623Z,6.40
2018-03-21T01:44:37.960Z,9.63
2018-03-21T01:47:05.543Z,5.15
2018-03-21T01:49:33.921Z,7.62
2018-03-21T01:52:02.275Z,10.25
2018-03-21T01:54:29.845Z,7.87
2018-03-21T01:56:57.420Z,7.22
2018-03-21T01:59:24.991Z,9.00
2018-03-21T02:01:52.617Z,8.48
2018-03-21T02:04:20.178Z,12.88
2018-03-21T02:06:47.760Z,10.38
2018-03-21T02:09:15.337Z,9.25
2018-03-21T02:11:43.677Z,5.57
2018-03-21T02:14:11.300Z,14.18
2018-03-21T02:16:39.705Z,8.18
2018-03-21T02:22:00.609Z,9.15
2018-03-21T02:24:28.234Z,12.57
2018-03-21T02:26:56.598Z,6.37
2018-03-21T02:29:24.270Z,8.40
2018-03-21T02:31:51.857Z,6.80
2018-03-21T02:34:20.216Z,6.80
2018-03-21T02:36:47.797Z,6.80
2018-03-21T02:39:16.130Z,7.87
2018-03-21T02:41:43.770Z,7.43
2018-03-21T02:44:11.366Z,10.00
2018-03-21T02:46:38.952Z,10.98
2018-03-21T02:49:07.327Z,13.90
2018-03-21T02:51:35.712Z,9.18
2018-03-21T02:54:04.054Z,8.98
2018-03-21T02:56:31.642Z,9.82
2018-03-21T02:58:59.996Z,13.65
2018-03-21T03:01:27.568Z,6.78
2018-03-21T03:03:55.137Z,7.60
2018-03-21T03:06:22.720Z,14.20
2018-03-21T03:08:51.075Z,6.30
2018-03-21T03:11:19.450Z,7.62
2018-03-21T03:13:47.077Z,12.10
2018-03-21T03:16:14.659Z,13.85
2018-03-21T03:18:42.523Z,14.40
2018-03-21T03:21:10.105Z,13.68
2018-03-21T03:23:37.728Z,12.73
2018-03-21T03:26:05.342Z,14.73
2018-03-21T03:28:33.691Z,8.10
2018-03-21T03:31:01.274Z,6.68
2018-03-21T03:33:28.868Z,10.52
2018-03-21T03:35:56.429Z,8.38
2018-03-21T03:38:24.021Z,7.85
2018-03-21T03:40:51.624Z,11.98
2018-03-21T03:43:19.187Z,7.43
2018-03-21T03:45:47.547Z,10.85
2018-03-21T03:48:15.214Z,9.80
2018-03-21T03:50:42.809Z,7.28
2018-03-21T03:53:10.408Z,9.63
2018-03-21T03:55:38.011Z,16.12
2018-03-21T03:58:06.352Z,9.38
2018-03-21T04:00:34.000Z,12.20
2018-03-21T04:03:01.582Z,7.72
2018-03-21T04:05:29.171Z,14.35
2018-03-21T04:07:56.767Z,11.48
2018-03-21T04:10:24.368Z,13.55
2018-03-21T04:12:51.971Z,13.23
2018-03-21T04:15:20.312Z,14.23
2018-03-21T04:17:47.881Z,10.70
2018-03-21T04:20:15.461Z,11.90
2018-03-21T04:22:43.837Z,8.20
2018-03-21T04:25:11.407Z,10.20
2018-03-21T04:27:39.752Z,17.42
2018-03-21T04:30:07.328Z,14.07
2018-03-21T04:32:34.941Z,15.95
2018-03-21T04:35:02.503Z,10.10
2018-03-21T04:37:30.107Z,6.55
2018-03-21T04:39:57.699Z,8.38
2018-03-21T04:42:26.058Z,8.32
2018-03-21T04:44:56.680Z,15.15
2018-03-21T04:47:24.272Z,11.85
2018-03-21T04:49:52.619Z,7.03
2018-03-21T04:52:20.190Z,11.88
2018-03-21T04:54:47.760Z,13.32
2018-03-21T04:57:16.107Z,12.02
2018-03-21T04:59:43.693Z,9.70
2018-03-21T05:02:11.254Z,10.55
2018-03-21T05:04:38.837Z,19.35
2018-03-21T05:07:07.171Z,9.13
2018-03-21T05:09:34.809Z,14.48
2018-03-21T05:12:02.392Z,13.73
2018-03-21T05:14:29.964Z,15.80
2018-03-21T05:16:57.805Z,13.13
2018-03-21T05:19:25.402Z,9.95
2018-03-21T05:21:52.955Z,6.95
2018-03-21T05:24:20.524Z,22.62
2018-03-21T05:26:48.876Z,8.98
2018-03-21T05:29:16.447Z,15.05
2018-03-21T05:31:44.019Z,11.70
2018-03-21T05:34:11.632Z,15.90
2018-03-21T05:36:40.084Z,8.35
2018-03-21T05:39:08.424Z,8.38
2018-03-21T05:41:35.979Z,9.65
2018-03-21T05:44:03.617Z,13.65
2018-03-21T05:46:31.180Z,11.63
2018-03-21T05:48:58.747Z,12.07
2018-03-21T05:51:26.317Z,21.80
2018-03-21T05:53:53.896Z,11.12
2018-03-21T05:56:21.489Z,14.77
2018-03-21T05:58:49.815Z,11.52
2018-03-21T06:01:17.386Z,20.02
2018-03-21T06:03:44.984Z,11.40
2018-03-21T06:06:13.333Z,10.63
2018-03-21T06:08:40.909Z,11.75
2018-03-21T06:11:08.489Z,12.20
2018-03-21T06:13:36.816Z,8.98
2018-03-21T06:16:04.401Z,8.88
2018-03-21T06:18:32.177Z,7.75
2018-03-21T06:20:59.778Z,9.55
2018-03-21T06:23:27.406Z,15.25
2018-03-21T06:25:54.987Z,11.45
2018-03-21T06:28:23.325Z,12.75
2018-03-21T06:30:50.927Z,13.90
2018-03-21T06:33:19.272Z,13.15
2018-03-21T06:35:46.833Z,11.23
2018-03-21T06:38:14.421Z,14.75
2018-03-21T06:40:42.751Z,8.65
2018-03-21T06:43:10.357Z,15.45
2018-03-21T06:45:38.700Z,8.55
2018-03-21T06:48:06.387Z,11.15
2018-03-21T06:50:34.027Z,12.70
2018-03-21T06:53:01.604Z,11.27
2018-03-21T06:55:29.188Z,11.55
2018-03-21T06:57:57.554Z,17.48
2018-03-21T07:00:25.226Z,9.88
2018-03-21T07:02:53.564Z,11.15
2018-03-21T07:05:21.151Z,10.73
2018-03-21T07:07:49.154Z,10.55
2018-03-21T07:10:16.940Z,13.23
2018-03-21T07:12:44.521Z,10.75
2018-03-21T07:15:24.085Z,17.33
2018-03-21T07:17:51.645Z,19.20
2018-03-21T07:20:19.232Z,12.60
2018-03-21T07:22:47.575Z,15.60
2018-03-21T07:25:15.150Z,20.55
2018-03-21T07:27:42.720Z,11.57
2018-03-21T07:30:10.388Z,9.57
2018-03-21T07:32:38.762Z,14.52
2018-03-21T07:35:07.297Z,13.45
2018-03-21T07:37:34.882Z,9.90
2018-03-21T07:42:37.210Z,9.77
2018-03-21T07:45:05.616Z,8.67
2018-03-21T07:47:33.193Z,10.60
2018-03-21T07:50:00.759Z,12.17
2018-03-21T07:52:28.347Z,9.37
2018-03-21T07:54:56.787Z,12.67
2018-03-21T07:57:26.861Z,11.63
2018-03-21T07:59:57.709Z,13.20
2018-03-21T08:02:26.535Z,9.93
2018-03-21T08:04:55.097Z,16.53
2018-03-21T08:07:24.012Z,20.60
2018-03-21T08:09:52.208Z,26.70
2018-03-21T08:12:21.078Z,21.07
2018-03-21T08:14:49.274Z,13.73
2018-03-21T08:17:18.325Z,13.50
2018-03-21T08:19:47.196Z,11.80
2018-03-21T08:22:15.904Z,6.73
2018-03-21T08:24:50.017Z,14.10
2018-03-21T08:27:21.245Z,10.23
2018-03-21T08:35:13.364Z,9.90
2018-03-21T08:37:42.599Z,9.17
2018-03-21T08:40:10.432Z,7.87
2018-03-21T08:42:38.391Z,10.43
2018-03-21T08:45:06.473Z,8.77
2018-03-21T08:47:34.543Z,7.30
2018-03-21T08:50:02.742Z,8.70
2018-03-21T08:52:30.692Z,7.90
2018-03-21T08:54:59.898Z,6.60
2018-03-21T08:57:28.285Z,7.23
2018-03-21T08:59:56.273Z,10.33
2018-03-21T09:02:24.321Z,12.13
2018-03-21T09:04:52.166Z,10.73
2018-03-21T09:07:22.724Z,7.00
2018-03-21T09:09:51.169Z,11.90
2018-03-21T09:12:20.683Z,9.30
2018-03-21T09:14:50.406Z,7.03
2018-03-21T09:17:18.780Z,5.80
2018-03-21T09:19:46.862Z,12.67
2018-03-21T09:22:15.123Z,10.10
2018-03-21T09:24:43.049Z,8.63
2018-03-21T09:27:10.958Z,10.90
2018-03-21T09:29:38.981Z,8.70
2018-03-21T09:32:11.833Z,9.60
2018-03-21T09:34:41.733Z,8.20
2018-03-21T09:37:15.319Z,7.70
2018-03-21T09:39:45.060Z,9.93
2018-03-21T09:42:13.201Z,11.50
2018-03-21T09:44:42.643Z,7.47
2018-03-21T09:47:10.512Z,7.70
2018-03-21T09:49:38.634Z,8.20
2018-03-21T09:52:06.828Z,7.30
2018-03-21T09:54:50.496Z,11.90
2018-03-21T09:57:18.657Z,8.60
2018-03-21T09:59:46.642Z,11.10
2018-03-21T10:02:14.824Z,9.30
2018-03-21T10:04:57.226Z,6.43
2018-03-21T10:07:25.537Z,6.97
2018-03-21T10:09:53.887Z,8.50
2018-03-21T10:12:21.854Z,7.77
2018-03-21T10:14:53.625Z,12.73
2018-03-21T10:17:25.083Z,6.40
2018-03-21T10:19:56.728Z,8.40
2018-03-21T10:22:25.518Z,10.60
2018-03-21T10:24:54.099Z,7.27
2018-03-21T10:27:22.460Z,9.40
2018-03-21T10:29:51.365Z,7.77
2018-03-21T10:32:19.337Z,6.90
2018-03-21T10:34:47.102Z,6.67
2018-03-21T10:37:15.206Z,7.70
2018-03-21T10:39:43.425Z,4.83
2018-03-21T10:42:13.257Z,8.13
2018-03-21T10:44:41.224Z,5.57
2018-03-21T10:47:09.730Z,7.50
2018-03-21T10:49:38.216Z,4.00
2018-03-21T10:52:07.298Z,3.97
2018-03-21T10:54:35.564Z,6.83
2018-03-21T10:57:03.516Z,10.57
2018-03-21T10:59:32.615Z,6.13
2018-03-21T11:02:07.132Z,5.70
2018-03-21T11:04:36.039Z,4.83
2018-03-21T11:07:19.918Z,7.63
2018-03-21T11:09:55.551Z,10.57
2018-03-21T11:12:24.556Z,3.80
2018-03-21T11:14:55.613Z,4.07
2018-03-21T11:17:23.594Z,3.00
2018-03-21T11:19:51.636Z,5.47
2018-03-21T11:22:19.355Z,5.07
2018-03-21T11:24:48.430Z,9.20
2018-03-21T11:27:17.320Z,10.17
2018-03-21T11:29:45.346Z,3.67
2018-03-21T11:32:13.326Z,7.30
2018-03-21T11:34:41.321Z,7.70
2018-03-21T11:37:10.078Z,13.70
2018-03-21T11:39:38.548Z,7.00
2018-03-21T11:42:07.313Z,13.17
2018-03-21T11:44:35.242Z,10.57
2018-03-21T11:47:03.658Z,5.30
2018-03-21T11:49:31.883Z,6.83
2018-03-21T11:51:59.927Z,8.53
2018-03-21T11:54:28.027Z,10.83
2018-03-21T11:56:55.833Z,7.70
2018-03-21T11:59:23.986Z,13.30
2018-03-21T12:01:51.988Z,5.37
2018-03-21T12:04:20.322Z,7.67
2018-03-21T12:07:08.411Z,8.13
2018-03-21T12:09:40.968Z,10.03
2018-03-21T12:12:08.548Z,3.63
2018-03-21T12:14:36.188Z,5.00
2018-03-21T12:17:03.767Z,5.10
2018-03-21T12:19:31.332Z,6.50
2018-03-21T12:21:59.773Z,4.97
2018-03-21T12:24:27.372Z,13.97
2018-03-21T12:26:55.031Z,11.33
2018-03-21T12:29:22.647Z,6.67
2018-03-21T12:31:50.269Z,7.27
2018-03-21T12:34:17.849Z,9.73
2018-03-21T12:36:46.180Z,8.23
2018-03-21T12:39:16.687Z,15.17
2018-03-21T12:41:44.301Z,9.33
2018-03-21T12:44:11.994Z,9.17
2018-03-21T12:46:39.582Z,10.90
2018-03-21T12:49:07.150Z,14.80
2018-03-21T12:54:26.004Z,15.30
2018-03-21T12:56:53.665Z,15.30
2018-03-21T12:59:21.276Z,10.73
2018-03-21T13:01:48.912Z,13.97
2018-03-21T13:04:16.573Z,14.60
2018-03-21T13:06:44.189Z,10.40
2018-03-21T13:09:12.531Z,11.33
2018-03-21T13:11:40.169Z,12.50
2018-03-21T13:14:08.246Z,10.07
2018-03-21T13:16:36.677Z,14.50
2018-03-21T13:19:07.823Z,10.67
2018-03-21T13:21:37.138Z,11.97
2018-03-21T13:37:32.633Z,17.60
2018-03-21T13:40:11.167Z,14.33
2018-03-21T13:42:54.224Z,18.67
2018-03-21T13:45:21.813Z,12.53
2018-03-21T13:47:49.423Z,12.10
2018-03-21T13:50:17.028Z,12.03
2018-03-21T13:52:44.737Z,12.17
2018-03-21T13:55:13.094Z,11.10
2018-03-21T13:57:40.675Z,15.00
2018-03-21T14:00:09.083Z,13.53
2018-03-21T14:02:36.669Z,14.10
2018-03-21T14:05:04.316Z,14.30
2018-03-21T14:07:31.923Z,13.70
2018-03-21T14:10:00.467Z,11.60
2018-03-21T14:12:28.066Z,10.90
2018-03-21T14:14:55.661Z,9.40
2018-03-21T14:17:23.302Z,12.17
2018-03-21T14:19:51.951Z,11.90
2018-03-21T14:22:19.972Z,12.47
2018-03-21T14:24:47.664Z,11.97
2018-03-21T14:27:15.241Z,12.67
2018-03-21T14:29:42.905Z,10.00
2018-03-21T14:32:10.605Z,14.73
2018-03-21T14:34:38.221Z,14.30
2018-03-21T14:37:05.943Z,16.00
2018-03-21T14:39:34.439Z,9.30
2018-03-21T14:42:02.034Z,21.50
2018-03-21T14:44:29.696Z,13.10
2018-03-21T14:46:57.333Z,16.83
2018-03-21T14:49:24.916Z,15.53
2018-03-21T14:51:52.545Z,11.53
2018-03-21T14:54:20.871Z,8.90
2018-03-21T14:56:48.675Z,12.00
2018-03-21T14:59:16.297Z,10.20
2018-03-21T15:01:43.916Z,11.50
2018-03-21T15:04:11.505Z,17.53
2018-03-21T15:06:39.120Z,13.43
2018-03-21T15:09:06.725Z,9.70
2018-03-21T15:11:34.352Z,13.73
2018-03-21T15:14:02.722Z,15.73
2018-03-21T15:16:30.302Z,12.07
2018-03-21T15:18:57.959Z,9.90
2018-03-21T15:21:26.310Z,12.93
2018-03-21T15:23:53.889Z,11.60
2018-03-21T15:26:21.453Z,13.37
2018-03-21T15:28:49.886Z,18.50
2018-03-21T15:31:17.503Z,11.60
2018-03-21T15:33:45.866Z,15.53
2018-03-21T15:36:13.450Z,13.30
2018-03-21T15:38:41.072Z,12.47
2018-03-21T15:41:08.651Z,13.77
2018-03-21T15:43:36.242Z,7.83
2018-03-21T15:46:04.864Z,9.20
2018-03-21T15:48:32.450Z,10.10
2018-03-21T15:51:00.054Z,12.43
2018-03-21T15:53:27.640Z,10.33
2018-03-21T15:55:55.307Z,14.17
2018-03-21T15:58:22.985Z,10.73
2018-03-21T16:00:50.644Z,12.60
2018-03-21T16:03:18.423Z,14.17
2018-03-21T16:05:46.064Z,17.40
2018-03-21T16:08:13.737Z,11.80
2018-03-21T16:10:41.495Z,16.00
2018-03-21T16:13:09.111Z,13.07
2018-03-21T16:15:37.557Z,12.80
2018-03-21T16:18:05.267Z,11.27
2018-03-21T16:20:33.059Z,9.30
2018-03-21T16:23:00.662Z,12.90
2018-03-21T16:25:28.337Z,13.43
2018-03-21T16:27:55.916Z,10.10
2018-03-21T16:30:23.537Z,12.73
2018-03-21T16:32:51.935Z,18.10
2018-03-21T16:35:20.338Z,16.57
2018-03-21T16:37:48.795Z,26.33
2018-03-21T16:40:16.922Z,16.00
2018-03-21T16:42:44.563Z,17.00
2018-03-21T16:45:12.710Z,14.50
2018-03-21T16:47:41.450Z,24.57
2018-03-21T16:50:09.622Z,17.13
2018-03-21T16:52:37.490Z,20.67
2018-03-21T16:55:05.395Z,42.63
2018-03-21T16:57:33.329Z,18.87
2018-03-21T17:00:01.301Z,20.40
2018-03-21T17:02:29.015Z,11.60
2018-03-21T17:04:56.648Z,18.30
2018-03-21T17:07:25.264Z,14.93
2018-03-21T17:09:53.961Z,18.17
2018-03-21T17:12:22.789Z,16.37
2018-03-21T17:14:51.051Z,20.80
2018-03-21T17:17:19.032Z,11.30
2018-03-21T17:19:47.112Z,17.40
2018-03-21T17:22:16.390Z,12.20
2018-03-21T17:24:44.312Z,13.83
2018-03-21T17:27:12.015Z,18.83
2018-03-21T17:29:39.624Z,16.73
2018-03-21T17:34:42.291Z,15.50
2018-03-21T17:37:10.053Z,18.70
2018-03-21T17:39:38.165Z,24.37
2018-03-21T17:42:05.908Z,13.20
2018-03-21T17:44:33.571Z,16.33
2018-03-21T17:47:01.434Z,14.13
2018-03-21T17:49:30.465Z,17.17
2018-03-21T17:51:58.855Z,16.90
2018-03-21T17:54:27.501Z,18.80
2018-03-21T17:56:56.760Z,18.67
2018-03-21T17:59:25.268Z,17.70
2018-03-21T18:01:53.546Z,16.40
2018-03-21T18:04:21.998Z,18.57
2018-03-21T18:06:50.918Z,17.17
2018-03-21T18:09:19.320Z,19.55
2018-03-21T18:11:47.407Z,21.87
2018-03-21T18:14:16.896Z,15.53
2018-03-21T18:16:45.005Z,17.10
2018-03-21T18:19:15.783Z,20.73
2018-03-21T18:21:43.544Z,24.77
2018-03-21T18:24:11.626Z,19.57
2018-03-21T18:26:39.399Z,13.23
2018-03-21T18:29:07.044Z,20.50
2018-03-21T18:31:35.492Z,22.03
2018-03-21T18:34:03.117Z,20.63
2018-03-21T18:36:30.916Z,21.40
2018-03-21T18:38:58.752Z,16.37
2018-03-21T18:41:26.503Z,17.30
2018-03-21T18:43:54.484Z,18.80
2018-03-21T18:46:26.963Z,16.20
2018-03-21T18:48:54.898Z,14.55
2018-03-21T18:51:23.590Z,16.30
2018-03-21T18:53:51.243Z,18.63
2018-03-21T18:56:19.697Z,14.63
2018-03-21T18:58:47.297Z,19.73
2018-03-21T19:01:15.015Z,17.45
2018-03-21T19:03:43.323Z,13.90
2018-03-21T19:06:13.079Z,17.10
2018-03-21T19:08:40.862Z,18.10
2018-03-21T19:11:08.514Z,16.23
2018-03-21T19:13:36.120Z,16.83
2018-03-21T19:16:03.728Z,17.15
2018-03-21T19:18:31.371Z,25.53
2018-03-21T19:20:58.968Z,13.62
2018-03-21T19:23:26.736Z,18.57
2018-03-21T19:25:54.363Z,20.62
2018-03-21T19:28:22.393Z,11.50
2018-03-21T19:30:49.998Z,12.73
2018-03-21T19:33:17.627Z,17.23
2018-03-21T19:35:46.306Z,16.87
2018-03-21T19:38:13.911Z,13.37
2018-03-21T19:40:41.586Z,13.52
2018-03-21T19:43:09.168Z,15.43
2018-03-21T19:45:36.785Z,10.57
2018-03-21T19:48:04.572Z,16.60
2018-03-21T19:50:32.533Z,24.95
2018-03-21T19:53:00.430Z,15.17
2018-03-21T19:55:28.956Z,15.88
2018-03-21T19:57:57.356Z,14.85
2018-03-21T20:00:24.987Z,17.15
2018-03-21T20:02:54.250Z,16.00
2018-03-21T20:05:21.886Z,13.45
2018-03-21T20:07:49.490Z,16.12
2018-03-21T20:10:17.110Z,20.67
2018-03-21T20:12:44.872Z,14.30
2018-03-21T20:15:13.183Z,13.70
2018-03-21T20:17:40.818Z,18.80
2018-03-21T20:20:09.171Z,14.32
2018-03-21T20:22:36.897Z,12.20
2018-03-21T20:25:04.503Z,18.90
2018-03-21T20:27:32.886Z,16.42
2018-03-21T20:30:01.259Z,16.45
2018-03-21T20:32:29.651Z,11.98
2018-03-21T20:34:57.284Z,17.85
2018-03-21T20:37:24.945Z,14.55
2018-03-21T20:39:52.533Z,11.80
2018-03-21T20:42:20.885Z,16.98
2018-03-21T20:44:48.468Z,15.02
2018-03-21T20:47:16.846Z,13.55
2018-03-21T20:49:45.282Z,17.65
2018-03-21T20:52:12.870Z,14.65
2018-03-21T20:54:40.498Z,14.02
2018-03-21T20:57:08.110Z,21.15
2018-03-21T20:59:36.472Z,14.63
2018-03-21T21:02:04.113Z,17.50
2018-03-21T21:04:31.801Z,17.35
2018-03-21T21:06:59.363Z,16.40
2018-03-21T21:09:26.992Z,15.57
2018-03-21T21:11:54.831Z,16.12
2018-03-21T21:14:22.681Z,17.10
2018-03-21T21:16:50.323Z,14.98
2018-03-21T21:19:18.740Z,22.42
2018-03-21T21:21:46.465Z,16.67
2018-03-21T21:24:14.095Z,19.50
2018-03-21T21:26:41.713Z,20.95
2018-03-21T21:29:10.081Z,17.77
2018-03-21T21:31:37.685Z,18.48
2018-03-21T21:34:05.269Z,23.38
2018-03-21T21:36:32.888Z,21.10
2018-03-21T21:39:00.497Z,25.92
2018-03-21T21:41:28.092Z,21.15
2018-03-21T21:43:56.504Z,24.30
2018-03-21T21:46:24.113Z,38.08
2018-03-21T21:48:51.717Z,28.58
2018-03-21T21:51:19.338Z,30.92
2018-03-21T21:53:46.943Z,27.95
2018-03-21T21:56:14.548Z,34.17
2018-03-21T21:58:43.384Z,40.12
2018-03-21T22:01:11.752Z,36.13
2018-03-21T22:03:40.111Z,36.30
2018-03-21T22:06:07.723Z,35.72
2018-03-21T22:08:35.320Z,38.90
2018-03-21T22:11:02.901Z,35.58
2018-03-21T22:13:30.515Z,39.78
2018-03-21T22:15:58.180Z,38.35
2018-03-21T22:18:25.778Z,41.17
2018-03-21T22:20:53.845Z,39.08
2018-03-21T22:23:21.461Z,34.92
2018-03-21T22:25:49.086Z,36.78
2018-03-21T22:28:16.680Z,40.92
2018-03-21T22:30:45.035Z,52.47
2018-03-21T22:33:12.637Z,47.05
2018-03-21T22:35:40.260Z,42.15
2018-03-21T22:38:07.883Z,40.92
2018-03-21T22:40:35.470Z,42.03
2018-03-21T22:43:03.052Z,43.28
2018-03-21T22:45:31.435Z,41.55
2018-03-21T22:47:59.818Z,42.25
2018-03-21T22:50:28.181Z,43.15
2018-03-21T22:52:55.767Z,42.30
2018-03-21T22:55:24.130Z,44.85
2018-03-21T23:00:42.272Z,52.03
2018-03-21T23:03:09.838Z,53.00
2018-03-21T23:05:37.693Z,51.95
2018-03-21T23:08:05.341Z,48.50
2018-03-21T23:10:33.019Z,58.30
2018-03-21T23:13:00.707Z,53.83
2018-03-21T23:15:29.064Z,43.92
2018-03-21T23:17:56.671Z,44.80
2018-03-21T23:20:24.278Z,47.13
2018-03-21T23:22:51.898Z,45.85
2018-03-21T23:25:19.577Z,50.45
2018-03-21T23:27:47.212Z,43.75
2018-03-21T23:30:15.569Z,50.75
2018-03-21T23:32:43.200Z,47.88
2018-03-21T23:35:10.810Z,42.72
2018-03-21T23:37:39.170Z,45.97
2018-03-21T23:40:06.814Z,60.08
2018-03-21T23:42:34.431Z,45.63
2018-03-21T23:45:02.048Z,55.80
2018-03-21T23:47:30.461Z,47.67
2018-03-21T23:49:58.856Z,45.97
2018-03-21T23:52:26.487Z,42.70
2018-03-21T23:54:54.091Z,48.30
2018-03-21T23:57:21.694Z,52.95
2018-03-21T23:59:49.307Z,47.62
